Calvary, Georgia
Current Conditions -  °F | °C
As of 1:15 PM on Friday 28 Nov 2014 (Local Time) from K2J9 Reporting Station
Clear Clear  
Wind Chill: 55°   Ceiling: Unl
Heat Index: 55°   Visibility: 10mi
Dew Point: 25°   Wind: 6mph
Humidity: 31%   Direction: 40°NE
Pressure: 30.36"   Gusts: NA
Location:  30.73°N, 84.35°W
Report Text: K2J9 281815Z AUTO 04005KT 10SM CLR 13/M04 A3036 RMK AO1
Loading
Personal Weather Stations






























Interactive Weather Map New forecast layout! Learn more

10-Day Weather Forecast

Advertisements
Track Severe Weather on mobile